sensor_id;sensor_type;location;lat;lon;timestamp;P1;durP1;ratioP1;P2;durP2;ratioP2
72621;SDS011;60665;53.506;9.582;2022-10-18T00:00:47;13.38;;;6.68;;
72621;SDS011;60665;53.506;9.582;2022-10-18T00:03:12;15.70;;;7.60;;
72621;SDS011;60665;53.506;9.582;2022-10-18T00:05:38;12.60;;;6.18;;
72621;SDS011;60665;53.506;9.582;2022-10-18T00:08:03;16.80;;;7.38;;
72621;SDS011;60665;53.506;9.582;2022-10-18T00:10:28;13.00;;;6.93;;
72621;SDS011;60665;53.506;9.582;2022-10-18T00:12:54;10.55;;;5.90;;
72621;SDS011;60665;53.506;9.582;2022-10-18T00:15:19;13.82;;;7.05;;
72621;SDS011;60665;53.506;9.582;2022-10-18T00:17:45;12.52;;;6.70;;
72621;SDS011;60665;53.506;9.582;2022-10-18T00:20:10;18.38;;;8.52;;
72621;SDS011;60665;53.506;9.582;2022-10-18T00:22:36;13.15;;;6.63;;
72621;SDS011;60665;53.506;9.582;2022-10-18T00:25:02;14.15;;;7.35;;
72621;SDS011;60665;53.506;9.582;2022-10-18T00:27:29;14.32;;;7.68;;
72621;SDS011;60665;53.506;9.582;2022-10-18T00:29:55;13.60;;;7.13;;
72621;SDS011;60665;53.506;9.582;2022-10-18T00:32:20;16.27;;;7.90;;
72621;SDS011;60665;53.506;9.582;2022-10-18T00:34:46;16.60;;;8.50;;
72621;SDS011;60665;53.506;9.582;2022-10-18T00:37:11;16.83;;;8.13;;
72621;SDS011;60665;53.506;9.582;2022-10-18T00:39:37;14.27;;;7.20;;
72621;SDS011;60665;53.506;9.582;2022-10-18T00:42:02;12.88;;;6.40;;
72621;SDS011;60665;53.506;9.582;2022-10-18T00:47:02;17.87;;;7.50;;
72621;SDS011;60665;53.506;9.582;2022-10-18T00:49:42;15.70;;;8.40;;
72621;SDS011;60665;53.506;9.582;2022-10-18T00:54:48;15.48;;;7.45;;
72621;SDS011;60665;53.506;9.582;2022-10-18T00:57:14;17.70;;;7.68;;
72621;SDS011;60665;53.506;9.582;2022-10-18T00:59:40;17.05;;;8.93;;
72621;SDS011;60665;53.506;9.582;2022-10-18T01:02:06;18.45;;;8.20;;
72621;SDS011;60665;53.506;9.582;2022-10-18T01:04:32;15.18;;;8.18;;
72621;SDS011;60665;53.506;9.582;2022-10-18T01:19:05;13.75;;;8.10;;
72621;SDS011;60665;53.506;9.582;2022-10-18T01:21:49;13.85;;;7.38;;
72621;SDS011;60665;53.506;9.582;2022-10-18T01:29:43;24.50;;;9.40;;
72621;SDS011;60665;53.506;9.582;2022-10-18T01:32:24;19.65;;;8.90;;
72621;SDS011;60665;53.506;9.582;2022-10-18T01:35:02;14.80;;;8.00;;
72621;SDS011;60665;53.506;9.582;2022-10-18T01:37:31;13.23;;;8.15;;
72621;SDS011;60665;53.506;9.582;2022-10-18T01:39:59;21.38;;;8.85;;
72621;SDS011;60665;53.506;9.582;2022-10-18T01:42:27;20.70;;;9.93;;
72621;SDS011;60665;53.506;9.582;2022-10-18T01:44:52;19.55;;;9.18;;
72621;SDS011;60665;53.506;9.582;2022-10-18T01:47:18;19.40;;;9.73;;
72621;SDS011;60665;53.506;9.582;2022-10-18T01:49:44;23.08;;;10.25;;
72621;SDS011;60665;53.506;9.582;2022-10-18T01:52:13;23.13;;;10.65;;
72621;SDS011;60665;53.506;9.582;2022-10-18T01:54:41;16.42;;;9.45;;
72621;SDS011;60665;53.506;9.582;2022-10-18T02:11:00;21.20;;;10.05;;
72621;SDS011;60665;53.506;9.582;2022-10-18T02:13:35;19.65;;;10.23;;
72621;SDS011;60665;53.506;9.582;2022-10-18T02:16:05;20.60;;;9.77;;
72621;SDS011;60665;53.506;9.582;2022-10-18T02:18:35;21.88;;;10.70;;
72621;SDS011;60665;53.506;9.582;2022-10-18T02:21:04;15.48;;;8.07;;
72621;SDS011;60665;53.506;9.582;2022-10-18T02:23:32;16.95;;;8.20;;
72621;SDS011;60665;53.506;9.582;2022-10-18T02:25:58;20.73;;;10.60;;
72621;SDS011;60665;53.506;9.582;2022-10-18T02:28:23;19.90;;;9.52;;
72621;SDS011;60665;53.506;9.582;2022-10-18T02:33:49;19.33;;;8.52;;
72621;SDS011;60665;53.506;9.582;2022-10-18T02:36:19;17.02;;;7.43;;
72621;SDS011;60665;53.506;9.582;2022-10-18T02:38:48;16.67;;;7.70;;
72621;SDS011;60665;53.506;9.582;2022-10-18T02:41:23;18.63;;;9.73;;
72621;SDS011;60665;53.506;9.582;2022-10-18T02:43:50;14.85;;;7.38;;
72621;SDS011;60665;53.506;9.582;2022-10-18T02:46:15;14.80;;;8.15;;
72621;SDS011;60665;53.506;9.582;2022-10-18T02:48:41;12.90;;;7.40;;
72621;SDS011;60665;53.506;9.582;2022-10-18T02:51:06;17.90;;;9.77;;
72621;SDS011;60665;53.506;9.582;2022-10-18T02:53:31;21.38;;;10.30;;
72621;SDS011;60665;53.506;9.582;2022-10-18T02:55:57;20.02;;;9.48;;
72621;SDS011;60665;53.506;9.582;2022-10-18T02:58:22;17.02;;;8.70;;
72621;SDS011;60665;53.506;9.582;2022-10-18T03:00:50;19.08;;;8.60;;
72621;SDS011;60665;53.506;9.582;2022-10-18T03:03:15;17.63;;;8.45;;
72621;SDS011;60665;53.506;9.582;2022-10-18T03:05:41;17.27;;;8.88;;
72621;SDS011;60665;53.506;9.582;2022-10-18T03:08:06;12.40;;;6.28;;
72621;SDS011;60665;53.506;9.582;2022-10-18T03:10:31;17.85;;;8.70;;
72621;SDS011;60665;53.506;9.582;2022-10-18T03:12:57;17.65;;;9.07;;
72621;SDS011;60665;53.506;9.582;2022-10-18T03:15:22;13.48;;;7.03;;
72621;SDS011;60665;53.506;9.582;2022-10-18T03:17:48;17.65;;;8.45;;
72621;SDS011;60665;53.506;9.582;2022-10-18T03:20:13;18.55;;;7.88;;
72621;SDS011;60665;53.506;9.582;2022-10-18T03:22:38;16.50;;;8.43;;
72621;SDS011;60665;53.506;9.582;2022-10-18T03:25:04;17.35;;;8.30;;
72621;SDS011;60665;53.506;9.582;2022-10-18T03:27:29;14.63;;;7.25;;
72621;SDS011;60665;53.506;9.582;2022-10-18T03:29:54;16.25;;;8.85;;
72621;SDS011;60665;53.506;9.582;2022-10-18T03:32:20;17.20;;;7.80;;
72621;SDS011;60665;53.506;9.582;2022-10-18T03:34:45;18.40;;;8.38;;
72621;SDS011;60665;53.506;9.582;2022-10-18T03:37:11;16.13;;;8.35;;
72621;SDS011;60665;53.506;9.582;2022-10-18T03:39:36;12.95;;;7.38;;
72621;SDS011;60665;53.506;9.582;2022-10-18T03:42:01;15.05;;;6.95;;
72621;SDS011;60665;53.506;9.582;2022-10-18T03:44:27;17.00;;;8.57;;
72621;SDS011;60665;53.506;9.582;2022-10-18T03:46:52;15.27;;;7.65;;
72621;SDS011;60665;53.506;9.582;2022-10-18T03:49:17;18.33;;;8.95;;
72621;SDS011;60665;53.506;9.582;2022-10-18T03:51:43;17.00;;;8.57;;
72621;SDS011;60665;53.506;9.582;2022-10-18T03:54:08;13.55;;;6.90;;
72621;SDS011;60665;53.506;9.582;2022-10-18T03:56:33;16.25;;;7.90;;
72621;SDS011;60665;53.506;9.582;2022-10-18T03:58:59;17.63;;;8.70;;
72621;SDS011;60665;53.506;9.582;2022-10-18T04:01:24;16.17;;;7.63;;
72621;SDS011;60665;53.506;9.582;2022-10-18T04:03:49;18.73;;;9.05;;
72621;SDS011;60665;53.506;9.582;2022-10-18T04:06:15;16.48;;;9.45;;
72621;SDS011;60665;53.506;9.582;2022-10-18T04:08:40;25.60;;;9.98;;
72621;SDS011;60665;53.506;9.582;2022-10-18T04:11:06;18.15;;;9.50;;
72621;SDS011;60665;53.506;9.582;2022-10-18T04:13:36;22.88;;;10.00;;
72621;SDS011;60665;53.506;9.582;2022-10-18T04:16:01;18.75;;;10.00;;
72621;SDS011;60665;53.506;9.582;2022-10-18T04:18:26;25.98;;;11.23;;
72621;SDS011;60665;53.506;9.582;2022-10-18T04:20:52;22.40;;;10.63;;
72621;SDS011;60665;53.506;9.582;2022-10-18T04:23:17;30.70;;;11.23;;
72621;SDS011;60665;53.506;9.582;2022-10-18T04:25:42;24.48;;;11.60;;
72621;SDS011;60665;53.506;9.582;2022-10-18T04:28:08;26.25;;;12.57;;
72621;SDS011;60665;53.506;9.582;2022-10-18T04:30:33;24.38;;;11.90;;
72621;SDS011;60665;53.506;9.582;2022-10-18T04:32:58;25.52;;;12.60;;
72621;SDS011;60665;53.506;9.582;2022-10-18T04:35:24;27.50;;;12.27;;
72621;SDS011;60665;53.506;9.582;2022-10-18T04:37:50;28.13;;;12.20;;
72621;SDS011;60665;53.506;9.582;2022-10-18T04:40:15;33.53;;;13.65;;
72621;SDS011;60665;53.506;9.582;2022-10-18T04:42:40;26.67;;;12.52;;
72621;SDS011;60665;53.506;9.582;2022-10-18T04:45:06;29.20;;;12.85;;
72621;SDS011;60665;53.506;9.582;2022-10-18T04:47:32;29.55;;;12.63;;
72621;SDS011;60665;53.506;9.582;2022-10-18T04:49:58;35.22;;;13.05;;
72621;SDS011;60665;53.506;9.582;2022-10-18T04:52:23;36.45;;;13.70;;
72621;SDS011;60665;53.506;9.582;2022-10-18T04:54:48;31.67;;;13.57;;
72621;SDS011;60665;53.506;9.582;2022-10-18T04:57:14;26.92;;;13.45;;
72621;SDS011;60665;53.506;9.582;2022-10-18T04:59:39;38.25;;;12.73;;
72621;SDS011;60665;53.506;9.582;2022-10-18T05:02:04;29.48;;;13.63;;
72621;SDS011;60665;53.506;9.582;2022-10-18T05:04:30;33.40;;;13.23;;
72621;SDS011;60665;53.506;9.582;2022-10-18T05:06:55;31.35;;;12.45;;
72621;SDS011;60665;53.506;9.582;2022-10-18T05:09:20;28.98;;;13.20;;
72621;SDS011;60665;53.506;9.582;2022-10-18T05:11:48;30.75;;;12.98;;
72621;SDS011;60665;53.506;9.582;2022-10-18T05:14:14;25.85;;;11.70;;
72621;SDS011;60665;53.506;9.582;2022-10-18T05:16:39;33.67;;;13.40;;
72621;SDS011;60665;53.506;9.582;2022-10-18T05:19:04;33.22;;;12.73;;
72621;SDS011;60665;53.506;9.582;2022-10-18T05:21:30;27.83;;;11.85;;
72621;SDS011;60665;53.506;9.582;2022-10-18T05:23:55;28.08;;;12.50;;
72621;SDS011;60665;53.506;9.582;2022-10-18T05:26:21;29.13;;;12.70;;
72621;SDS011;60665;53.506;9.582;2022-10-18T05:28:47;29.70;;;11.43;;
72621;SDS011;60665;53.506;9.582;2022-10-18T05:31:13;29.17;;;12.68;;
72621;SDS011;60665;53.506;9.582;2022-10-18T05:33:39;22.77;;;11.80;;
72621;SDS011;60665;53.506;9.582;2022-10-18T05:36:04;29.40;;;12.18;;
72621;SDS011;60665;53.506;9.582;2022-10-18T05:38:30;27.83;;;12.35;;
72621;SDS011;60665;53.506;9.582;2022-10-18T05:40:55;28.33;;;11.50;;
72621;SDS011;60665;53.506;9.582;2022-10-18T05:43:21;30.23;;;11.55;;
72621;SDS011;60665;53.506;9.582;2022-10-18T05:45:47;26.38;;;11.38;;
72621;SDS011;60665;53.506;9.582;2022-10-18T05:48:13;26.35;;;11.55;;
72621;SDS011;60665;53.506;9.582;2022-10-18T05:50:38;25.52;;;10.68;;
72621;SDS011;60665;53.506;9.582;2022-10-18T05:53:04;25.08;;;10.77;;
72621;SDS011;60665;53.506;9.582;2022-10-18T05:55:29;26.30;;;10.40;;
72621;SDS011;60665;53.506;9.582;2022-10-18T05:57:54;25.45;;;11.35;;
72621;SDS011;60665;53.506;9.582;2022-10-18T06:00:20;29.15;;;12.20;;
72621;SDS011;60665;53.506;9.582;2022-10-18T06:02:45;27.90;;;11.13;;
72621;SDS011;60665;53.506;9.582;2022-10-18T06:05:10;25.90;;;10.77;;
72621;SDS011;60665;53.506;9.582;2022-10-18T06:07:35;29.67;;;11.15;;
72621;SDS011;60665;53.506;9.582;2022-10-18T06:10:01;27.58;;;11.50;;
72621;SDS011;60665;53.506;9.582;2022-10-18T06:12:26;26.10;;;11.30;;
72621;SDS011;60665;53.506;9.582;2022-10-18T06:14:52;26.05;;;11.10;;
72621;SDS011;60665;53.506;9.582;2022-10-18T06:17:17;22.08;;;10.57;;
72621;SDS011;60665;53.506;9.582;2022-10-18T06:19:42;24.20;;;10.43;;
72621;SDS011;60665;53.506;9.582;2022-10-18T06:22:08;26.33;;;10.95;;
72621;SDS011;60665;53.506;9.582;2022-10-18T06:24:34;22.27;;;9.43;;
72621;SDS011;60665;53.506;9.582;2022-10-18T06:27:00;20.55;;;9.93;;
72621;SDS011;60665;53.506;9.582;2022-10-18T06:29:28;25.08;;;10.27;;
72621;SDS011;60665;53.506;9.582;2022-10-18T06:31:53;21.10;;;10.15;;
72621;SDS011;60665;53.506;9.582;2022-10-18T06:34:19;25.92;;;10.27;;
72621;SDS011;60665;53.506;9.582;2022-10-18T06:36:44;26.65;;;10.35;;
72621;SDS011;60665;53.506;9.582;2022-10-18T06:39:09;23.58;;;9.95;;
72621;SDS011;60665;53.506;9.582;2022-10-18T06:41:34;23.10;;;10.00;;
72621;SDS011;60665;53.506;9.582;2022-10-18T06:44:00;25.63;;;10.65;;
72621;SDS011;60665;53.506;9.582;2022-10-18T06:46:31;23.80;;;10.45;;
72621;SDS011;60665;53.506;9.582;2022-10-18T06:48:57;26.67;;;10.77;;
72621;SDS011;60665;53.506;9.582;2022-10-18T06:51:22;20.77;;;10.05;;
72621;SDS011;60665;53.506;9.582;2022-10-18T06:53:47;30.15;;;10.38;;
72621;SDS011;60665;53.506;9.582;2022-10-18T06:56:13;26.92;;;10.68;;
72621;SDS011;60665;53.506;9.582;2022-10-18T06:58:38;30.02;;;11.25;;
72621;SDS011;60665;53.506;9.582;2022-10-18T07:01:05;22.75;;;9.90;;
72621;SDS011;60665;53.506;9.582;2022-10-18T07:03:32;24.23;;;11.25;;
72621;SDS011;60665;53.506;9.582;2022-10-18T07:05:59;23.00;;;9.38;;
72621;SDS011;60665;53.506;9.582;2022-10-18T07:08:26;25.27;;;9.82;;
72621;SDS011;60665;53.506;9.582;2022-10-18T07:10:52;23.23;;;9.98;;
72621;SDS011;60665;53.506;9.582;2022-10-18T07:13:17;23.00;;;9.38;;
72621;SDS011;60665;53.506;9.582;2022-10-18T07:15:43;24.25;;;10.20;;
72621;SDS011;60665;53.506;9.582;2022-10-18T07:18:08;27.15;;;9.93;;
72621;SDS011;60665;53.506;9.582;2022-10-18T07:20:34;17.95;;;9.45;;
72621;SDS011;60665;53.506;9.582;2022-10-18T07:22:59;24.08;;;10.40;;
72621;SDS011;60665;53.506;9.582;2022-10-18T07:25:25;24.27;;;8.98;;
72621;SDS011;60665;53.506;9.582;2022-10-18T07:27:50;23.45;;;9.38;;
72621;SDS011;60665;53.506;9.582;2022-10-18T07:30:15;22.80;;;9.93;;
72621;SDS011;60665;53.506;9.582;2022-10-18T07:32:41;24.42;;;10.27;;
72621;SDS011;60665;53.506;9.582;2022-10-18T07:35:06;19.67;;;9.35;;
72621;SDS011;60665;53.506;9.582;2022-10-18T07:37:32;21.92;;;9.65;;
72621;SDS011;60665;53.506;9.582;2022-10-18T07:39:57;24.40;;;9.27;;
72621;SDS011;60665;53.506;9.582;2022-10-18T07:42:22;23.52;;;9.88;;
72621;SDS011;60665;53.506;9.582;2022-10-18T07:44:48;27.02;;;10.13;;
72621;SDS011;60665;53.506;9.582;2022-10-18T07:47:14;27.75;;;10.65;;
72621;SDS011;60665;53.506;9.582;2022-10-18T07:49:39;25.52;;;10.25;;
72621;SDS011;60665;53.506;9.582;2022-10-18T07:52:05;23.92;;;10.10;;
72621;SDS011;60665;53.506;9.582;2022-10-18T07:54:30;23.70;;;10.65;;
72621;SDS011;60665;53.506;9.582;2022-10-18T07:56:56;21.55;;;9.40;;
72621;SDS011;60665;53.506;9.582;2022-10-18T07:59:21;24.25;;;9.80;;
72621;SDS011;60665;53.506;9.582;2022-10-18T08:01:46;22.50;;;9.63;;
72621;SDS011;60665;53.506;9.582;2022-10-18T08:04:12;24.45;;;10.18;;
72621;SDS011;60665;53.506;9.582;2022-10-18T08:06:37;22.65;;;9.20;;
72621;SDS011;60665;53.506;9.582;2022-10-18T08:09:02;21.88;;;9.20;;
72621;SDS011;60665;53.506;9.582;2022-10-18T08:11:28;19.92;;;9.05;;
72621;SDS011;60665;53.506;9.582;2022-10-18T08:13:54;22.30;;;8.85;;
72621;SDS011;60665;53.506;9.582;2022-10-18T08:16:20;20.38;;;8.82;;
72621;SDS011;60665;53.506;9.582;2022-10-18T08:18:50;23.77;;;9.10;;
72621;SDS011;60665;53.506;9.582;2022-10-18T08:21:16;23.92;;;8.63;;
72621;SDS011;60665;53.506;9.582;2022-10-18T08:23:42;23.83;;;9.60;;
72621;SDS011;60665;53.506;9.582;2022-10-18T08:26:08;22.70;;;9.20;;
72621;SDS011;60665;53.506;9.582;2022-10-18T08:28:35;22.17;;;8.77;;
72621;SDS011;60665;53.506;9.582;2022-10-18T08:31:02;18.48;;;8.45;;
72621;SDS011;60665;53.506;9.582;2022-10-18T08:33:28;23.17;;;8.90;;
72621;SDS011;60665;53.506;9.582;2022-10-18T08:35:54;21.42;;;9.20;;
72621;SDS011;60665;53.506;9.582;2022-10-18T08:38:20;18.67;;;8.02;;
72621;SDS011;60665;53.506;9.582;2022-10-18T08:40:45;24.05;;;9.63;;
72621;SDS011;60665;53.506;9.582;2022-10-18T08:45:49;22.50;;;9.52;;
72621;SDS011;60665;53.506;9.582;2022-10-18T08:48:17;28.75;;;9.70;;
72621;SDS011;60665;53.506;9.582;2022-10-18T08:50:45;19.67;;;8.30;;
72621;SDS011;60665;53.506;9.582;2022-10-18T08:53:27;21.50;;;9.75;;
72621;SDS011;60665;53.506;9.582;2022-10-18T08:56:04;24.33;;;9.95;;
72621;SDS011;60665;53.506;9.582;2022-10-18T08:58:35;25.63;;;9.82;;
72621;SDS011;60665;53.506;9.582;2022-10-18T09:04:17;21.27;;;9.65;;
72621;SDS011;60665;53.506;9.582;2022-10-18T09:15:43;22.10;;;9.43;;
72621;SDS011;60665;53.506;9.582;2022-10-18T09:25:49;16.92;;;8.15;;
72621;SDS011;60665;53.506;9.582;2022-10-18T09:28:34;20.40;;;8.02;;
72621;SDS011;60665;53.506;9.582;2022-10-18T09:36:43;16.23;;;7.15;;
72621;SDS011;60665;53.506;9.582;2022-10-18T09:41:44;17.77;;;7.50;;
72621;SDS011;60665;53.506;9.582;2022-10-18T09:44:20;18.67;;;7.38;;
72621;SDS011;60665;53.506;9.582;2022-10-18T09:49:56;19.45;;;7.00;;
72621;SDS011;60665;53.506;9.582;2022-10-18T09:52:25;14.35;;;6.78;;
72621;SDS011;60665;53.506;9.582;2022-10-18T09:54:59;13.68;;;6.57;;
72621;SDS011;60665;53.506;9.582;2022-10-18T09:57:33;13.50;;;6.25;;
72621;SDS011;60665;53.506;9.582;2022-10-18T10:00:14;16.15;;;6.57;;
72621;SDS011;60665;53.506;9.582;2022-10-18T10:02:42;15.20;;;6.38;;
72621;SDS011;60665;53.506;9.582;2022-10-18T10:05:11;14.52;;;5.93;;
72621;SDS011;60665;53.506;9.582;2022-10-18T10:07:42;17.50;;;6.57;;
72621;SDS011;60665;53.506;9.582;2022-10-18T10:12:40;13.65;;;6.53;;
72621;SDS011;60665;53.506;9.582;2022-10-18T10:15:15;15.88;;;6.13;;
72621;SDS011;60665;53.506;9.582;2022-10-18T10:17:42;13.38;;;6.25;;
72621;SDS011;60665;53.506;9.582;2022-10-18T10:20:16;15.70;;;5.63;;
72621;SDS011;60665;53.506;9.582;2022-10-18T10:22:43;13.68;;;5.38;;
72621;SDS011;60665;53.506;9.582;2022-10-18T10:27:54;10.98;;;5.32;;
72621;SDS011;60665;53.506;9.582;2022-10-18T10:30:27;12.07;;;4.68;;
72621;SDS011;60665;53.506;9.582;2022-10-18T10:32:55;10.00;;;4.88;;
72621;SDS011;60665;53.506;9.582;2022-10-18T10:35:28;11.85;;;5.13;;
72621;SDS011;60665;53.506;9.582;2022-10-18T10:38:04;13.65;;;5.22;;
72621;SDS011;60665;53.506;9.582;2022-10-18T10:40:30;12.00;;;4.78;;
72621;SDS011;60665;53.506;9.582;2022-10-18T10:43:14;12.77;;;4.85;;
72621;SDS011;60665;53.506;9.582;2022-10-18T10:46:03;12.65;;;5.00;;
72621;SDS011;60665;53.506;9.582;2022-10-18T10:48:32;9.98;;;4.50;;
72621;SDS011;60665;53.506;9.582;2022-10-18T10:51:05;12.85;;;4.65;;
72621;SDS011;60665;53.506;9.582;2022-10-18T10:56:12;9.52;;;3.83;;
72621;SDS011;60665;53.506;9.582;2022-10-18T10:58:42;8.30;;;4.05;;
72621;SDS011;60665;53.506;9.582;2022-10-18T11:01:22;10.18;;;3.70;;
72621;SDS011;60665;53.506;9.582;2022-10-18T11:03:50;12.25;;;3.72;;
72621;SDS011;60665;53.506;9.582;2022-10-18T11:06:34;9.85;;;4.03;;
72621;SDS011;60665;53.506;9.582;2022-10-18T11:09:04;13.85;;;3.83;;
72621;SDS011;60665;53.506;9.582;2022-10-18T11:11:38;9.57;;;3.65;;
72621;SDS011;60665;53.506;9.582;2022-10-18T11:14:12;12.77;;;3.30;;
72621;SDS011;60665;53.506;9.582;2022-10-18T11:16:48;13.65;;;3.50;;
72621;SDS011;60665;53.506;9.582;2022-10-18T11:19:30;13.40;;;3.70;;
72621;SDS011;60665;53.506;9.582;2022-10-18T11:21:58;10.85;;;3.40;;
72621;SDS011;60665;53.506;9.582;2022-10-18T11:26:58;10.00;;;3.43;;
72621;SDS011;60665;53.506;9.582;2022-10-18T11:29:35;9.95;;;3.22;;
72621;SDS011;60665;53.506;9.582;2022-10-18T11:37:20;13.30;;;3.40;;
72621;SDS011;60665;53.506;9.582;2022-10-18T11:45:27;12.35;;;3.70;;
72621;SDS011;60665;53.506;9.582;2022-10-18T11:48:00;11.57;;;3.70;;
72621;SDS011;60665;53.506;9.582;2022-10-18T11:50:35;10.70;;;3.67;;
72621;SDS011;60665;53.506;9.582;2022-10-18T11:53:31;8.95;;;3.63;;
72621;SDS011;60665;53.506;9.582;2022-10-18T11:56:17;12.88;;;3.50;;
72621;SDS011;60665;53.506;9.582;2022-10-18T12:01:52;10.43;;;3.15;;
72621;SDS011;60665;53.506;9.582;2022-10-18T12:04:38;11.57;;;2.65;;
72621;SDS011;60665;53.506;9.582;2022-10-18T12:07:09;9.65;;;2.75;;
72621;SDS011;60665;53.506;9.582;2022-10-18T12:09:36;8.48;;;2.55;;
72621;SDS011;60665;53.506;9.582;2022-10-18T12:14:37;9.82;;;1.88;;
72621;SDS011;60665;53.506;9.582;2022-10-18T12:17:11;8.02;;;1.85;;
72621;SDS011;60665;53.506;9.582;2022-10-18T12:19:41;10.93;;;2.08;;
72621;SDS011;60665;53.506;9.582;2022-10-18T12:25:14;9.80;;;2.45;;
72621;SDS011;60665;53.506;9.582;2022-10-18T12:27:55;7.95;;;2.22;;
72621;SDS011;60665;53.506;9.582;2022-10-18T12:30:26;6.88;;;1.90;;
72621;SDS011;60665;53.506;9.582;2022-10-18T12:32:57;7.22;;;1.90;;
72621;SDS011;60665;53.506;9.582;2022-10-18T12:36:22;13.40;;;2.53;;
72621;SDS011;60665;53.506;9.582;2022-10-18T12:38:43;11.15;;;2.03;;
72621;SDS011;60665;53.506;9.582;2022-10-18T12:41:19;13.45;;;2.42;;
72621;SDS011;60665;53.506;9.582;2022-10-18T12:43:56;7.15;;;2.08;;
72621;SDS011;60665;53.506;9.582;2022-10-18T12:46:23;7.30;;;1.50;;
72621;SDS011;60665;53.506;9.582;2022-10-18T12:49:10;9.75;;;1.77;;
72621;SDS011;60665;53.506;9.582;2022-10-18T13:15:22;9.38;;;1.30;;
72621;SDS011;60665;53.506;9.582;2022-10-18T13:24:17;6.53;;;1.30;;
72621;SDS011;60665;53.506;9.582;2022-10-18T13:29:45;8.50;;;1.15;;
72621;SDS011;60665;53.506;9.582;2022-10-18T13:32:26;10.70;;;1.52;;
72621;SDS011;60665;53.506;9.582;2022-10-18T13:34:55;8.52;;;1.35;;
72621;SDS011;60665;53.506;9.582;2022-10-18T13:37:21;7.78;;;1.20;;
72621;SDS011;60665;53.506;9.582;2022-10-18T13:39:48;7.80;;;1.13;;
72621;SDS011;60665;53.506;9.582;2022-10-18T13:44:43;6.75;;;1.30;;
72621;SDS011;60665;53.506;9.582;2022-10-18T13:47:13;8.38;;;1.10;;
72621;SDS011;60665;53.506;9.582;2022-10-18T13:50:40;7.88;;;1.35;;
72621;SDS011;60665;53.506;9.582;2022-10-18T13:55:41;11.63;;;1.42;;
72621;SDS011;60665;53.506;9.582;2022-10-18T13:58:29;9.40;;;1.02;;
72621;SDS011;60665;53.506;9.582;2022-10-18T14:06:57;7.10;;;1.10;;
72621;SDS011;60665;53.506;9.582;2022-10-18T14:09:25;9.75;;;1.20;;
72621;SDS011;60665;53.506;9.582;2022-10-18T14:12:15;8.15;;;1.27;;
72621;SDS011;60665;53.506;9.582;2022-10-18T14:17:45;11.27;;;1.63;;
72621;SDS011;60665;53.506;9.582;2022-10-18T14:20:17;7.32;;;1.05;;
72621;SDS011;60665;53.506;9.582;2022-10-18T14:28:06;8.43;;;1.35;;
72621;SDS011;60665;53.506;9.582;2022-10-18T14:30:34;10.13;;;1.45;;
72621;SDS011;60665;53.506;9.582;2022-10-18T14:33:00;8.68;;;1.27;;
72621;SDS011;60665;53.506;9.582;2022-10-18T14:35:26;14.75;;;2.20;;
72621;SDS011;60665;53.506;9.582;2022-10-18T14:37:54;6.35;;;1.20;;
72621;SDS011;60665;53.506;9.582;2022-10-18T14:40:27;10.90;;;1.83;;
72621;SDS011;60665;53.506;9.582;2022-10-18T14:42:52;14.05;;;1.30;;
72621;SDS011;60665;53.506;9.582;2022-10-18T14:45:21;9.80;;;1.30;;
72621;SDS011;60665;53.506;9.582;2022-10-18T14:47:47;9.32;;;1.27;;
72621;SDS011;60665;53.506;9.582;2022-10-18T14:50:20;10.95;;;1.42;;
72621;SDS011;60665;53.506;9.582;2022-10-18T14:52:47;9.35;;;1.27;;
72621;SDS011;60665;53.506;9.582;2022-10-18T14:55:22;7.03;;;1.15;;
72621;SDS011;60665;53.506;9.582;2022-10-18T14:57:51;9.40;;;2.00;;
72621;SDS011;60665;53.506;9.582;2022-10-18T15:00:35;12.90;;;1.77;;
72621;SDS011;60665;53.506;9.582;2022-10-18T15:03:02;7.35;;;1.42;;
72621;SDS011;60665;53.506;9.582;2022-10-18T15:05:28;6.22;;;1.33;;
72621;SDS011;60665;53.506;9.582;2022-10-18T15:07:53;8.77;;;1.48;;
72621;SDS011;60665;53.506;9.582;2022-10-18T15:10:20;10.35;;;1.42;;
72621;SDS011;60665;53.506;9.582;2022-10-18T15:12:50;11.75;;;1.48;;
72621;SDS011;60665;53.506;9.582;2022-10-18T15:15:21;10.57;;;1.10;;
72621;SDS011;60665;53.506;9.582;2022-10-18T15:17:50;11.13;;;1.20;;
72621;SDS011;60665;53.506;9.582;2022-10-18T15:20:29;10.85;;;1.60;;
72621;SDS011;60665;53.506;9.582;2022-10-18T15:25:46;9.05;;;1.10;;
72621;SDS011;60665;53.506;9.582;2022-10-18T15:28:45;10.02;;;1.27;;
72621;SDS011;60665;53.506;9.582;2022-10-18T15:33:54;8.95;;;1.38;;
72621;SDS011;60665;53.506;9.582;2022-10-18T15:36:35;6.78;;;1.10;;
72621;SDS011;60665;53.506;9.582;2022-10-18T15:39:12;9.95;;;1.25;;
72621;SDS011;60665;53.506;9.582;2022-10-18T15:41:47;9.50;;;1.65;;
72621;SDS011;60665;53.506;9.582;2022-10-18T15:44:22;7.00;;;1.00;;
72621;SDS011;60665;53.506;9.582;2022-10-18T15:46:49;7.10;;;1.10;;
72621;SDS011;60665;53.506;9.582;2022-10-18T15:51:49;8.63;;;1.13;;
72621;SDS011;60665;53.506;9.582;2022-10-18T15:54:17;7.75;;;1.20;;
72621;SDS011;60665;53.506;9.582;2022-10-18T15:56:43;7.60;;;1.55;;
72621;SDS011;60665;53.506;9.582;2022-10-18T16:01:54;8.52;;;1.70;;
72621;SDS011;60665;53.506;9.582;2022-10-18T16:04:25;10.55;;;1.30;;
72621;SDS011;60665;53.506;9.582;2022-10-18T16:06:52;12.00;;;1.48;;
72621;SDS011;60665;53.506;9.582;2022-10-18T16:09:20;6.10;;;1.25;;
72621;SDS011;60665;53.506;9.582;2022-10-18T16:11:46;9.68;;;1.10;;
72621;SDS011;60665;53.506;9.582;2022-10-18T16:14:14;12.20;;;1.30;;
72621;SDS011;60665;53.506;9.582;2022-10-18T16:16:39;7.00;;;1.10;;
72621;SDS011;60665;53.506;9.582;2022-10-18T16:19:05;10.20;;;1.80;;
72621;SDS011;60665;53.506;9.582;2022-10-18T16:21:32;8.68;;;1.50;;
72621;SDS011;60665;53.506;9.582;2022-10-18T16:23:59;11.57;;;1.65;;
72621;SDS011;60665;53.506;9.582;2022-10-18T16:26:25;10.90;;;1.45;;
72621;SDS011;60665;53.506;9.582;2022-10-18T16:28:52;7.30;;;1.38;;
72621;SDS011;60665;53.506;9.582;2022-10-18T16:31:19;8.95;;;1.20;;
72621;SDS011;60665;53.506;9.582;2022-10-18T16:36:18;11.73;;;1.70;;
72621;SDS011;60665;53.506;9.582;2022-10-18T16:38:45;8.23;;;1.40;;
72621;SDS011;60665;53.506;9.582;2022-10-18T16:41:11;13.55;;;1.60;;
72621;SDS011;60665;53.506;9.582;2022-10-18T16:43:38;11.50;;;1.77;;
72621;SDS011;60665;53.506;9.582;2022-10-18T16:46:04;11.18;;;1.30;;
72621;SDS011;60665;53.506;9.582;2022-10-18T16:48:30;8.25;;;1.25;;
72621;SDS011;60665;53.506;9.582;2022-10-18T16:50:56;13.75;;;1.63;;
72621;SDS011;60665;53.506;9.582;2022-10-18T16:53:22;10.77;;;1.45;;
72621;SDS011;60665;53.506;9.582;2022-10-18T16:55:53;12.48;;;1.55;;
72621;SDS011;60665;53.506;9.582;2022-10-18T16:58:21;8.10;;;1.30;;
72621;SDS011;60665;53.506;9.582;2022-10-18T17:00:46;5.05;;;1.20;;
72621;SDS011;60665;53.506;9.582;2022-10-18T17:03:12;14.82;;;1.67;;
72621;SDS011;60665;53.506;9.582;2022-10-18T17:05:38;12.07;;;1.40;;
72621;SDS011;60665;53.506;9.582;2022-10-18T17:08:04;11.60;;;1.20;;
72621;SDS011;60665;53.506;9.582;2022-10-18T17:10:30;8.07;;;1.27;;
72621;SDS011;60665;53.506;9.582;2022-10-18T17:12:55;11.27;;;1.40;;
72621;SDS011;60665;53.506;9.582;2022-10-18T17:15:20;9.57;;;1.55;;
72621;SDS011;60665;53.506;9.582;2022-10-18T17:17:45;7.85;;;1.15;;
72621;SDS011;60665;53.506;9.582;2022-10-18T17:20:25;7.57;;;1.50;;
72621;SDS011;60665;53.506;9.582;2022-10-18T17:22:51;8.45;;;1.33;;
72621;SDS011;60665;53.506;9.582;2022-10-18T17:25:18;10.18;;;1.42;;
72621;SDS011;60665;53.506;9.582;2022-10-18T17:27:43;9.20;;;1.45;;
72621;SDS011;60665;53.506;9.582;2022-10-18T17:30:10;9.52;;;1.17;;